Time;durP1;ratioP1;P1;durP2;ratioP2;P2;SDS_P1;SDS_P2;PMS_P1;PMS_P2;Temp;Humidity;BMP_temperature;BMP_pressure;BME280_temperature;BME280_humidity;BME280_pressure;Samples;Min_cycle;Max_cycle;Signal;HPM_P1;HPM_P2
2023/09/24 00:01:05;;;;;;;1.67;1.58;;;13.30;99.90;;;;;;4987748;28;20073;-84
2023/09/24 00:03:32;;;;;;;1.20;1.20;;;13.20;99.90;;;;;;4987627;28;20415;-84
2023/09/24 00:06:03;;;;;;;1.30;1.30;;;13.30;99.90;;;;;;4987136;28;20060;-84
2023/09/24 00:08:29;;;;;;;1.33;1.33;;;13.40;99.90;;;;;;4988582;28;20046;-84
2023/09/24 00:10:56;;;;;;;1.65;1.55;;;13.40;99.90;;;;;;4987286;28;20100;-84
2023/09/24 00:13:22;;;;;;;1.35;1.33;;;13.70;99.90;;;;;;4970611;28;20044;-84
2023/09/24 00:15:51;;;;;;;1.52;1.45;;;13.30;99.90;;;;;;4988149;28;20048;-84
2023/09/24 00:18:18;;;;;;;1.58;1.48;;;13.50;99.90;;;;;;4985997;28;20742;-85
2023/09/24 00:20:44;;;;;;;1.45;1.40;;;13.50;99.90;;;;;;4929851;28;1206375;-85
2023/09/24 00:23:10;;;;;;;1.58;1.48;;;13.80;99.90;;;;;;4989641;28;20054;-85
2023/09/24 00:25:37;;;;;;;1.45;1.38;;;13.80;99.90;;;;;;4970545;28;20038;-84
2023/09/24 00:28:04;;;;;;;1.58;1.48;;;13.80;99.90;;;;;;4987128;28;22608;-84
2023/09/24 00:30:33;;;;;;;1.17;1.17;;;13.40;99.90;;;;;;4974720;28;20084;-85
2023/09/24 00:32:59;;;;;;;1.40;1.35;;;13.50;99.90;;;;;;4989632;28;20057;-84
2023/09/24 00:35:25;;;;;;;0.90;0.90;;;13.40;99.90;;;;;;4973637;28;20084;-85
2023/09/24 00:37:51;;;;;;;0.93;0.93;;;13.50;99.90;;;;;;4971467;28;20092;-85
2023/09/24 00:40:18;;;;;;;0.95;0.95;;;13.70;99.90;;;;;;4987847;28;20501;-84
2023/09/24 00:42:44;;;;;;;0.88;0.88;;;13.70;99.90;;;;;;4986455;28;20193;-84
2023/09/24 00:45:11;;;;;;;0.80;0.80;;;13.40;99.90;;;;;;4987790;28;20710;-85
2023/09/24 00:47:43;;;;;;;0.85;0.85;;;13.40;99.90;;;;;;4987893;28;20046;-85
2023/09/24 00:50:10;;;;;;;0.90;0.90;;;13.50;99.90;;;;;;4986593;28;20084;-85
2023/09/24 00:52:36;;;;;;;0.95;0.95;;;13.60;99.90;;;;;;4985321;28;20061;-85
2023/09/24 00:55:04;;;;;;;0.98;0.98;;;13.30;99.90;;;;;;4987477;28;20053;-83
2023/09/24 00:57:31;;;;;;;0.80;0.80;;;13.50;99.90;;;;;;4989341;28;20041;-84
2023/09/24 00:59:59;;;;;;;0.80;0.80;;;13.40;99.90;;;;;;4985991;28;20670;-84
2023/09/24 01:02:25;;;;;;;0.80;0.80;;;13.40;99.90;;;;;;4988609;28;20058;-83
2023/09/24 01:04:53;;;;;;;0.82;0.82;;;13.60;99.90;;;;;;5008483;28;20046;-83
2023/09/24 01:07:23;;;;;;;0.82;0.82;;;13.60;99.90;;;;;;4988745;28;20157;-85
2023/09/24 01:09:49;;;;;;;0.85;0.85;;;13.70;99.90;;;;;;4988590;28;20049;-85
2023/09/24 01:12:29;;;;;;;0.73;0.73;;;13.90;99.90;;;;;;4988318;28;20045;-85
2023/09/24 01:14:57;;;;;;;0.75;0.75;;;13.60;99.90;;;;;;4986855;28;20084;-85
2023/09/24 01:17:26;;;;;;;0.80;0.80;;;13.70;99.90;;;;;;4987010;28;20046;-85
2023/09/24 01:19:56;;;;;;;0.80;0.80;;;13.50;99.90;;;;;;4971488;28;20463;-86
2023/09/24 01:22:23;;;;;;;0.80;0.80;;;13.30;99.90;;;;;;4973790;28;20048;-89
2023/09/24 01:24:48;;;;;;;0.70;0.70;;;13.90;99.90;;;;;;4989455;28;20048;-84
2023/09/24 01:27:14;;;;;;;0.82;0.82;;;13.30;99.90;;;;;;4988245;28;20042;-84
2023/09/24 01:29:40;;;;;;;0.90;0.90;;;13.60;99.90;;;;;;4987079;28;20042;-83
2023/09/24 01:32:06;;;;;;;0.77;0.77;;;13.10;99.90;;;;;;5006754;28;20536;-84
2023/09/24 01:34:35;;;;;;;0.77;0.77;;;13.20;99.90;;;;;;4987250;28;20160;-84
2023/09/24 01:37:08;;;;;;;0.73;0.73;;;13.10;99.90;;;;;;4987209;28;20045;-82
2023/09/24 01:39:36;;;;;;;0.80;0.80;;;13.20;99.90;;;;;;4985785;28;20054;-83
2023/09/24 01:42:02;;;;;;;0.80;0.80;;;13.10;99.90;;;;;;4969107;28;20034;-83
2023/09/24 01:44:29;;;;;;;0.80;0.80;;;13.20;99.90;;;;;;4987279;28;20077;-83
2023/09/24 01:46:55;;;;;;;0.80;0.80;;;13.20;99.90;;;;;;4990627;28;20056;-83
2023/09/24 01:49:21;;;;;;;0.70;0.70;;;13.00;99.90;;;;;;4986925;28;20419;-84
2023/09/24 01:51:47;;;;;;;0.80;0.80;;;13.10;99.90;;;;;;4986753;28;20044;-83
2023/09/24 01:54:13;;;;;;;0.80;0.80;;;13.00;99.90;;;;;;4970294;28;20877;-84
2023/09/24 01:56:39;;;;;;;0.90;0.90;;;12.60;99.90;;;;;;4987983;28;20072;-85
2023/09/24 01:59:05;;;;;;;0.80;0.80;;;12.60;99.90;;;;;;4988200;28;20049;-83
2023/09/24 02:01:31;;;;;;;0.90;0.90;;;12.80;99.90;;;;;;4985474;28;20057;-83
2023/09/24 02:04:01;;;;;;;0.80;0.80;;;12.50;99.90;;;;;;4986449;28;20050;-83
2023/09/24 02:06:27;;;;;;;0.90;0.90;;;12.60;99.90;;;;;;4986095;28;20573;-84
2023/09/24 02:08:53;;;;;;;0.82;0.82;;;12.50;99.90;;;;;;4986344;28;20062;-84
2023/09/24 02:11:20;;;;;;;0.80;0.80;;;12.60;99.90;;;;;;4986026;28;20068;-83
2023/09/24 02:13:46;;;;;;;1.00;1.00;;;12.40;99.90;;;;;;4988519;28;20043;-84
2023/09/24 02:16:12;;;;;;;0.90;0.90;;;12.40;99.90;;;;;;4986202;28;20113;-83
2023/09/24 02:18:38;;;;;;;0.85;0.85;;;12.60;99.90;;;;;;4983842;28;20046;-83
2023/09/24 02:21:15;;;;;;;0.82;0.82;;;12.40;99.90;;;;;;4986357;28;20630;-84
2023/09/24 02:23:41;;;;;;;0.88;0.88;;;12.30;99.90;;;;;;4985129;28;20078;-83
2023/09/24 02:26:08;;;;;;;0.93;0.93;;;12.30;99.90;;;;;;4986192;28;20053;-83
2023/09/24 02:28:38;;;;;;;0.93;0.93;;;12.10;99.90;;;;;;4985432;28;20844;-83
2023/09/24 02:31:05;;;;;;;0.93;0.93;;;12.20;99.90;;;;;;4988104;28;20046;-83
2023/09/24 02:33:31;;;;;;;0.90;0.90;;;12.10;99.90;;;;;;4985923;28;20687;-83
2023/09/24 02:35:57;;;;;;;0.80;0.80;;;12.20;99.90;;;;;;4985640;28;20053;-83
2023/09/24 02:38:24;;;;;;;0.90;0.90;;;12.10;99.90;;;;;;4989661;28;20662;-83
2023/09/24 02:40:50;;;;;;;1.00;1.00;;;12.10;99.90;;;;;;5005551;28;20060;-83
2023/09/24 02:43:16;;;;;;;0.93;0.93;;;12.10;99.90;;;;;;4985693;28;20057;-83
2023/09/24 02:45:42;;;;;;;0.80;0.80;;;12.30;99.90;;;;;;4985982;28;20496;-83
2023/09/24 02:48:08;;;;;;;0.90;0.90;;;12.30;99.90;;;;;;4969620;28;20045;-83
2023/09/24 02:50:33;;;;;;;0.90;0.90;;;12.30;99.90;;;;;;4985968;28;20045;-83
2023/09/24 02:53:04;;;;;;;1.00;1.00;;;12.20;99.90;;;;;;4972071;28;20056;-83
2023/09/24 02:55:30;;;;;;;1.00;1.00;;;12.20;99.90;;;;;;5003289;28;20096;-83
2023/09/24 02:57:56;;;;;;;1.02;1.02;;;12.00;99.90;;;;;;5004387;28;20054;-84
2023/09/24 03:00:33;;;;;;;0.98;0.98;;;12.00;99.90;;;;;;4971261;28;20869;-84
2023/09/24 03:03:00;;;;;;;1.00;1.00;;;11.70;99.90;;;;;;4985933;28;20550;-84
2023/09/24 03:05:31;;;;;;;1.00;1.00;;;11.90;99.90;;;;;;4987384;28;20049;-83
2023/09/24 03:08:05;;;;;;;1.00;1.00;;;11.70;99.90;;;;;;4985747;28;20061;-84
2023/09/24 03:10:32;;;;;;;0.93;0.93;;;11.70;99.90;;;;;;4986269;28;20049;-83
2023/09/24 03:12:59;;;;;;;0.98;0.98;;;11.70;99.90;;;;;;4985697;28;20169;-84
2023/09/24 03:15:25;;;;;;;0.98;0.98;;;11.90;99.90;;;;;;4971641;28;20124;-83
2023/09/24 03:17:51;;;;;;;0.90;0.90;;;11.80;99.90;;;;;;4973782;28;20496;-83
2023/09/24 03:20:17;;;;;;;1.00;1.00;;;11.80;99.90;;;;;;4988467;28;20049;-83
2023/09/24 03:22:48;;;;;;;1.00;1.00;;;11.70;99.90;;;;;;4989867;28;20392;-84
2023/09/24 03:25:27;;;;;;;1.00;1.00;;;11.50;99.90;;;;;;4972600;28;20054;-83
2023/09/24 03:27:58;;;;;;;1.10;1.10;;;11.50;99.90;;;;;;4975912;28;20499;-84
2023/09/24 03:30:25;;;;;;;1.17;1.17;;;11.60;99.90;;;;;;4989469;28;20073;-82
2023/09/24 03:32:52;;;;;;;1.10;1.10;;;11.50;99.90;;;;;;5006016;28;20064;-83
2023/09/24 03:35:23;;;;;;;1.10;1.10;;;11.50;99.90;;;;;;4988295;28;20046;-83
2023/09/24 03:37:53;;;;;;;1.10;1.10;;;11.70;99.90;;;;;;4991629;28;20145;-83
2023/09/24 03:40:22;;;;;;;1.10;1.10;;;11.40;99.90;;;;;;4988523;28;20595;-83
2023/09/24 03:42:48;;;;;;;1.00;1.00;;;11.50;99.90;;;;;;4991259;28;20458;-83
2023/09/24 03:45:16;;;;;;;1.00;1.00;;;11.50;99.90;;;;;;4988262;28;20058;-83
2023/09/24 03:47:42;;;;;;;1.10;1.10;;;11.70;99.90;;;;;;5006314;28;20056;-83
2023/09/24 03:50:16;;;;;;;1.05;1.05;;;11.60;99.90;;;;;;4988677;28;20112;-83
2023/09/24 03:52:48;;;;;;;1.10;1.10;;;11.50;99.90;;;;;;4987427;28;20050;-83
2023/09/24 03:55:15;;;;;;;1.10;1.10;;;11.60;99.90;;;;;;4985298;28;20073;-83
2023/09/24 03:57:42;;;;;;;1.08;1.08;;;11.60;99.90;;;;;;4989206;28;20058;-84
2023/09/24 04:00:11;;;;;;;1.00;1.00;;;11.50;99.90;;;;;;4988750;28;20220;-83
2023/09/24 04:02:39;;;;;;;1.10;1.10;;;11.20;99.90;;;;;;4990102;28;20080;-84
2023/09/24 04:05:08;;;;;;;1.08;1.08;;;11.30;99.90;;;;;;4972983;28;20045;-84
2023/09/24 04:07:37;;;;;;;1.10;1.10;;;11.40;99.90;;;;;;5005343;28;20061;-83
2023/09/24 04:10:04;;;;;;;1.08;1.08;;;11.30;99.90;;;;;;4988611;28;20049;-84
2023/09/24 04:12:33;;;;;;;1.10;1.10;;;11.10;99.90;;;;;;4987367;28;20140;-84
2023/09/24 04:15:03;;;;;;;1.00;1.00;;;11.10;99.90;;;;;;4990239;28;20056;-82
2023/09/24 04:17:29;;;;;;;1.20;1.20;;;11.30;99.90;;;;;;4990513;28;20074;-83
2023/09/24 04:19:57;;;;;;;1.10;1.10;;;11.10;99.90;;;;;;4988359;28;20408;-83
2023/09/24 04:22:23;;;;;;;1.10;1.10;;;11.10;99.90;;;;;;4987805;28;20064;-83
2023/09/24 04:24:53;;;;;;;1.13;1.13;;;11.30;99.90;;;;;;4989013;28;20034;-84
2023/09/24 04:27:21;;;;;;;1.10;1.10;;;11.20;99.90;;;;;;4991868;28;20105;-84
2023/09/24 04:29:47;;;;;;;1.10;1.10;;;11.20;99.90;;;;;;4989048;28;20488;-83
2023/09/24 04:32:12;;;;;;;1.10;1.10;;;11.20;99.90;;;;;;4987752;28;20057;-83
2023/09/24 04:34:38;;;;;;;1.10;1.10;;;11.20;99.90;;;;;;4989656;28;20053;-83
2023/09/24 04:37:04;;;;;;;1.20;1.20;;;11.20;99.90;;;;;;4988144;28;20076;-83
2023/09/24 04:39:30;;;;;;;1.20;1.20;;;11.10;99.90;;;;;;4989199;28;20046;-83
2023/09/24 04:41:55;;;;;;;1.00;1.00;;;11.20;99.90;;;;;;4989804;28;20711;-83
2023/09/24 04:44:21;;;;;;;0.98;0.98;;;11.20;99.90;;;;;;4988210;28;20487;-83
2023/09/24 04:46:47;;;;;;;1.25;1.25;;;11.30;99.90;;;;;;4987424;28;20436;-84
2023/09/24 04:49:12;;;;;;;1.20;1.20;;;11.20;99.90;;;;;;4988999;28;20053;-83
2023/09/24 04:51:38;;;;;;;1.15;1.15;;;11.00;99.90;;;;;;4987286;28;20137;-83
2023/09/24 04:54:04;;;;;;;1.20;1.20;;;11.10;99.90;;;;;;4971170;28;20057;-83
2023/09/24 04:56:29;;;;;;;0.93;0.93;;;11.10;99.90;;;;;;4989542;28;20053;-83
2023/09/24 04:58:55;;;;;;;0.90;0.90;;;11.00;99.90;;;;;;5004391;28;20049;-82
2023/09/24 05:01:21;;;;;;;0.95;0.95;;;10.90;99.90;;;;;;4985375;28;20045;-85
2023/09/24 05:03:52;;;;;;;1.00;1.00;;;11.00;99.90;;;;;;4988471;28;20092;-82
2023/09/24 05:06:18;;;;;;;1.00;1.00;;;11.00;99.90;;;;;;4987401;28;20107;-83
2023/09/24 05:08:44;;;;;;;0.90;0.90;;;11.10;99.90;;;;;;4972530;28;20041;-83
2023/09/24 05:11:11;;;;;;;0.90;0.90;;;11.00;99.90;;;;;;4987697;28;20605;-83
2023/09/24 05:13:37;;;;;;;0.90;0.90;;;11.10;99.90;;;;;;4987943;28;20077;-83
2023/09/24 05:16:03;;;;;;;0.90;0.90;;;11.00;99.90;;;;;;4988216;28;20072;-83
2023/09/24 05:18:31;;;;;;;0.90;0.90;;;11.00;99.90;;;;;;4986835;28;20053;-84
2023/09/24 05:20:57;;;;;;;0.90;0.90;;;11.10;99.90;;;;;;4989229;28;20659;-83
2023/09/24 05:23:23;;;;;;;0.90;0.90;;;10.90;99.90;;;;;;4987807;28;20042;-83
2023/09/24 05:25:51;;;;;;;0.80;0.80;;;11.10;99.90;;;;;;4987798;28;20264;-83
2023/09/24 05:28:17;;;;;;;0.88;0.88;;;11.00;99.90;;;;;;4987510;28;20096;-82
2023/09/24 05:30:43;;;;;;;0.88;0.88;;;11.10;99.90;;;;;;4987276;28;20159;-82
2023/09/24 05:33:08;;;;;;;0.80;0.80;;;11.20;99.90;;;;;;5003660;28;20770;-83
2023/09/24 05:35:34;;;;;;;0.90;0.90;;;11.30;99.90;;;;;;4986768;28;20053;-83
2023/09/24 05:38:00;;;;;;;0.88;0.88;;;11.20;99.90;;;;;;4971315;28;20053;-82
2023/09/24 05:40:25;;;;;;;0.82;0.82;;;11.30;99.90;;;;;;4986944;28;20134;-82
2023/09/24 05:42:51;;;;;;;0.90;0.90;;;11.40;99.90;;;;;;4970734;28;20045;-81
2023/09/24 05:45:18;;;;;;;0.90;0.90;;;11.20;99.90;;;;;;5003940;28;20042;-82
2023/09/24 05:47:43;;;;;;;0.90;0.90;;;11.30;99.90;;;;;;4985989;28;20054;-82
2023/09/24 05:50:09;;;;;;;1.23;1.23;;;11.20;99.90;;;;;;4986091;28;20045;-83
2023/09/24 05:52:35;;;;;;;1.20;1.20;;;11.50;99.90;;;;;;4986297;28;20127;-83
2023/09/24 05:55:01;;;;;;;1.30;1.30;;;11.30;99.90;;;;;;4970032;28;20376;-82
2023/09/24 05:57:27;;;;;;;1.27;1.27;;;11.40;99.90;;;;;;4985924;28;21759;-82
2023/09/24 05:59:56;;;;;;;1.40;1.35;;;11.40;99.90;;;;;;4986750;28;20056;-84
2023/09/24 06:02:25;;;;;;;1.50;1.40;;;11.50;99.90;;;;;;4985920;28;20129;-84
2023/09/24 06:04:54;;;;;;;1.50;1.40;;;11.50;99.90;;;;;;4969101;28;20050;-83
2023/09/24 06:07:20;;;;;;;1.40;1.40;;;11.50;99.90;;;;;;4986302;28;20515;-83
2023/09/24 06:09:46;;;;;;;1.30;1.30;;;11.50;99.90;;;;;;4986037;28;20069;-82
2023/09/24 06:12:12;;;;;;;1.30;1.30;;;11.50;99.90;;;;;;4986278;28;20046;-84
2023/09/24 06:14:39;;;;;;;1.50;1.40;;;11.70;99.90;;;;;;4988349;28;20419;-82
2023/09/24 06:17:04;;;;;;;1.30;1.30;;;11.80;99.90;;;;;;4987669;28;20054;-82
2023/09/24 06:19:30;;;;;;;1.30;1.30;;;11.80;99.90;;;;;;4985013;28;20458;-83
2023/09/24 06:21:56;;;;;;;1.25;1.25;;;12.10;99.90;;;;;;4988288;28;20428;-84
2023/09/24 06:24:23;;;;;;;1.30;1.30;;;12.00;99.90;;;;;;4987477;28;20472;-82
2023/09/24 06:26:48;;;;;;;1.23;1.23;;;12.00;99.90;;;;;;4987620;28;20045;-82
2023/09/24 06:29:14;;;;;;;1.20;1.20;;;12.00;99.90;;;;;;4986108;28;20057;-81
2023/09/24 06:31:40;;;;;;;1.20;1.20;;;12.20;99.90;;;;;;5003027;28;20050;-83
2023/09/24 06:34:06;;;;;;;1.20;1.20;;;12.20;99.90;;;;;;4986900;28;20052;-83
2023/09/24 06:36:32;;;;;;;1.20;1.20;;;12.30;99.90;;;;;;4987094;28;20104;-83
2023/09/24 06:38:59;;;;;;;1.10;1.10;;;12.50;99.90;;;;;;4986412;28;20419;-82
2023/09/24 06:41:25;;;;;;;1.05;1.05;;;12.70;99.90;;;;;;4986897;28;20050;-83
2023/09/24 06:43:51;;;;;;;1.00;1.00;;;12.80;99.90;;;;;;4984101;28;20058;-82
2023/09/24 06:46:17;;;;;;;1.00;1.00;;;12.90;99.90;;;;;;4987312;28;20052;-84
2023/09/24 06:48:42;;;;;;;1.00;1.00;;;12.90;99.90;;;;;;4985995;28;20045;-82
2023/09/24 06:51:11;;;;;;;0.90;0.90;;;13.10;99.90;;;;;;4993127;28;20045;-83
2023/09/24 06:53:39;;;;;;;0.98;0.98;;;13.20;99.90;;;;;;4990647;28;20049;-82
2023/09/24 06:56:06;;;;;;;1.00;1.00;;;13.30;99.90;;;;;;4989813;28;20061;-84
2023/09/24 06:58:33;;;;;;;0.88;0.88;;;13.40;99.90;;;;;;4989860;28;20049;-85
2023/09/24 07:01:09;;;;;;;0.88;0.88;;;13.50;99.90;;;;;;4988974;28;20049;-84
2023/09/24 07:03:34;;;;;;;0.95;0.95;;;13.60;99.90;;;;;;4990859;28;20045;-85
2023/09/24 07:06:03;;;;;;;0.98;0.98;;;13.60;99.90;;;;;;4989348;28;20132;-85
2023/09/24 07:08:33;;;;;;;1.02;1.02;;;13.90;99.90;;;;;;4989102;28;20119;-83
2023/09/24 07:11:28;;;;;;;1.05;1.05;;;13.90;99.90;;;;;;5006810;28;20038;-84
2023/09/24 07:13:54;;;;;;;1.00;1.00;;;13.80;99.90;;;;;;4987655;28;20499;-89
2023/09/24 07:16:25;;;;;;;1.02;1.02;;;13.90;99.90;;;;;;4972664;28;20049;-84
2023/09/24 07:18:51;;;;;;;1.02;1.02;;;13.80;99.90;;;;;;4989190;28;20415;-84
2023/09/24 07:21:22;;;;;;;1.08;1.08;;;13.80;99.90;;;;;;4988597;28;20042;-89
2023/09/24 07:23:50;;;;;;;1.10;1.10;;;13.90;99.90;;;;;;4988683;28;20037;-88
2023/09/24 07:26:16;;;;;;;1.00;1.00;;;13.90;99.90;;;;;;4989545;28;20130;-87
2023/09/24 07:28:43;;;;;;;0.90;0.90;;;13.80;99.90;;;;;;4970969;28;20049;-86
2023/09/24 07:31:21;;;;;;;0.90;0.90;;;13.90;99.90;;;;;;4988117;28;20048;-86
2023/09/24 07:33:52;;;;;;;0.90;0.90;;;14.00;99.90;;;;;;4989468;28;20041;-86
2023/09/24 07:36:18;;;;;;;0.88;0.88;;;13.90;99.90;;;;;;4986795;28;20581;-84
2023/09/24 07:38:44;;;;;;;0.80;0.80;;;14.10;99.90;;;;;;4971197;28;20046;-82
2023/09/24 07:41:11;;;;;;;0.80;0.80;;;14.20;99.90;;;;;;4983649;28;20042;-84
2023/09/24 07:43:38;;;;;;;0.80;0.80;;;14.30;99.90;;;;;;4987689;28;20503;-82
2023/09/24 07:46:09;;;;;;;0.70;0.70;;;14.50;99.90;;;;;;4987564;28;20069;-87
2023/09/24 07:48:36;;;;;;;0.80;0.80;;;14.70;99.90;;;;;;4983226;28;20046;-84
2023/09/24 07:51:02;;;;;;;0.80;0.80;;;14.60;99.90;;;;;;4985678;28;20820;-84
2023/09/24 07:53:28;;;;;;;0.73;0.73;;;14.70;99.90;;;;;;4970168;28;20057;-84
2023/09/24 07:56:07;;;;;;;0.70;0.70;;;15.00;99.90;;;;;;4970073;28;20072;-85
2023/09/24 07:58:33;;;;;;;0.75;0.75;;;14.90;99.90;;;;;;4986371;28;20064;-87
2023/09/24 08:01:03;;;;;;;0.80;0.80;;;15.20;99.90;;;;;;4985831;28;20577;-88
2023/09/24 08:03:30;;;;;;;0.80;0.80;;;15.10;99.90;;;;;;4981300;28;20491;-85
2023/09/24 08:05:56;;;;;;;0.80;0.80;;;15.10;99.90;;;;;;4984804;28;20049;-85
2023/09/24 08:08:21;;;;;;;0.73;0.73;;;15.30;99.90;;;;;;4981444;28;20048;-86
2023/09/24 08:10:47;;;;;;;0.80;0.80;;;15.50;99.90;;;;;;4984594;28;20046;-85
2023/09/24 08:13:13;;;;;;;0.77;0.77;;;15.60;99.90;;;;;;4986285;28;20046;-86
2023/09/24 08:15:39;;;;;;;0.80;0.80;;;15.70;99.90;;;;;;4969721;28;20526;-87
2023/09/24 08:18:09;;;;;;;0.70;0.70;;;15.60;99.90;;;;;;4974443;28;20134;-86
2023/09/24 08:20:41;;;;;;;0.80;0.80;;;15.80;99.90;;;;;;4983702;28;20046;-90
2023/09/24 08:23:06;;;;;;;0.70;0.70;;;15.90;99.90;;;;;;4981698;28;20597;-87
2023/09/24 08:25:32;;;;;;;0.70;0.70;;;15.80;99.90;;;;;;4989552;28;20046;-89
2023/09/24 08:27:59;;;;;;;0.80;0.80;;;16.10;99.90;;;;;;4975004;28;20402;-86
2023/09/24 08:30:41;;;;;;;0.75;0.75;;;16.10;99.90;;;;;;4990927;28;20068;-94
2023/09/24 08:33:08;;;;;;;0.80;0.80;;;16.20;99.90;;;;;;4974872;28;20053;-88
2023/09/24 08:35:35;;;;;;;0.70;0.70;;;16.20;99.90;;;;;;4989606;28;20050;-85
2023/09/24 08:38:01;;;;;;;0.80;0.80;;;16.50;99.90;;;;;;4990013;28;20065;-85
2023/09/24 08:40:31;;;;;;;0.90;0.90;;;16.40;99.90;;;;;;4973874;28;20045;-91
2023/09/24 08:42:57;;;;;;;0.88;0.88;;;16.60;99.90;;;;;;4989512;28;20046;-86
2023/09/24 08:45:26;;;;;;;0.88;0.88;;;16.70;99.90;;;;;;4972553;28;20125;-88
2023/09/24 08:47:52;;;;;;;0.80;0.80;;;16.70;99.90;;;;;;4988073;28;20085;-85
2023/09/24 08:50:19;;;;;;;0.80;0.80;;;16.80;99.90;;;;;;4988547;28;20042;-85
2023/09/24 08:52:45;;;;;;;0.82;0.82;;;16.80;99.90;;;;;;4972123;28;20049;-82
2023/09/24 08:55:13;;;;;;;0.80;0.80;;;16.90;99.90;;;;;;4988641;28;20057;-86
2023/09/24 08:57:40;;;;;;;0.80;0.80;;;17.10;99.90;;;;;;4988186;28;20095;-87
2023/09/24 09:00:11;;;;;;;0.82;0.82;;;17.10;99.90;;;;;;4985940;28;20125;-87
2023/09/24 09:02:37;;;;;;;0.80;0.80;;;17.10;99.90;;;;;;4973236;28;20495;-88
2023/09/24 09:05:26;;;;;;;0.80;0.80;;;17.20;99.90;;;;;;4971694;28;20038;-86
2023/09/24 09:07:59;;;;;;;0.70;0.70;;;17.20;99.90;;;;;;4977548;28;20412;-86
2023/09/24 09:10:36;;;;;;;0.70;0.70;;;17.40;99.90;;;;;;4989163;28;20664;-84
2023/09/24 09:13:09;;;;;;;0.70;0.70;;;17.50;99.90;;;;;;4988731;28;20049;-87
2023/09/24 09:15:37;;;;;;;0.70;0.70;;;17.60;99.90;;;;;;4987312;28;20049;-83
2023/09/24 09:18:03;;;;;;;0.70;0.70;;;17.80;99.90;;;;;;4989383;28;20104;-85
2023/09/24 09:21:01;;;;;;;0.73;0.73;;;17.80;99.90;;;;;;4986925;28;20041;-87
2023/09/24 09:23:33;;;;;;;0.70;0.70;;;17.70;99.90;;;;;;4976262;28;20137;-86
2023/09/24 09:25:59;;;;;;;0.70;0.70;;;17.70;99.90;;;;;;4986919;28;20151;-86
2023/09/24 09:28:34;;;;;;;0.70;0.70;;;17.90;99.90;;;;;;4970665;28;21076;-90
2023/09/24 09:31:07;;;;;;;0.70;0.70;;;17.90;99.90;;;;;;4982888;28;20531;-85
2023/09/24 09:33:43;;;;;;;0.80;0.80;;;17.90;99.90;;;;;;5001243;28;22776;-84
2023/09/24 09:36:30;;;;;;;0.82;0.82;;;17.90;99.90;;;;;;4984373;28;20832;-91
2023/09/24 09:38:57;;;;;;;0.80;0.80;;;17.90;99.90;;;;;;4985268;28;20057;-84
2023/09/24 09:41:24;;;;;;;0.82;0.82;;;17.90;99.90;;;;;;4988049;28;20080;-87
2023/09/24 09:43:52;;;;;;;0.80;0.80;;;18.10;99.90;;;;;;4984409;28;20073;-87
2023/09/24 09:46:23;;;;;;;0.80;0.80;;;18.10;99.90;;;;;;4986832;28;20056;-86
2023/09/24 09:49:05;;;;;;;0.70;0.70;;;18.20;99.90;;;;;;4971346;28;20053;-83
2023/09/24 09:51:39;;;;;;;0.70;0.70;;;18.30;99.90;;;;;;4985008;28;20203;-86
2023/09/24 09:54:06;;;;;;;0.63;0.63;;;18.40;99.90;;;;;;4987391;28;20793;-86
2023/09/24 09:56:35;;;;;;;0.80;0.80;;;18.50;99.90;;;;;;4987308;28;20054;-89
2023/09/24 09:59:02;;;;;;;0.70;0.70;;;18.60;99.90;;;;;;4986565;28;20081;-86
2023/09/24 10:01:28;;;;;;;0.82;0.82;;;18.50;99.90;;;;;;4970754;28;20057;-86
2023/09/24 10:03:55;;;;;;;0.70;0.70;;;18.30;99.90;;;;;;4986693;28;20455;-87
2023/09/24 10:06:22;;;;;;;0.73;0.73;;;18.40;99.90;;;;;;4985432;28;20046;-87
2023/09/24 10:08:49;;;;;;;0.70;0.70;;;18.60;99.90;;;;;;4969132;28;20474;-87
2023/09/24 10:11:33;;;;;;;0.77;0.77;;;18.60;99.90;;;;;;4987238;28;20053;-85
2023/09/24 10:14:00;;;;;;;0.80;0.80;;;18.70;99.90;;;;;;4972537;28;20511;-80
2023/09/24 10:16:44;;;;;;;0.70;0.70;;;18.70;99.90;;;;;;4974154;28;20144;-96
2023/09/24 10:19:11;;;;;;;0.70;0.70;;;18.90;99.90;;;;;;4977530;28;20092;-94
2023/09/24 10:21:42;;;;;;;0.70;0.70;;;19.00;99.90;;;;;;5005959;28;20038;-91
2023/09/24 10:24:28;;;;;;;0.73;0.73;;;18.90;99.90;;;;;;4987165;28;20046;-94
2023/09/24 10:27:07;;;;;;;0.70;0.70;;;19.10;99.90;;;;;;4975062;28;20057;-90
2023/09/24 10:29:45;;;;;;;0.80;0.80;;;19.30;99.90;;;;;;4969968;28;20045;-88
2023/09/24 10:32:12;;;;;;;0.80;0.80;;;19.40;99.90;;;;;;4970189;28;20407;-87
2023/09/24 10:35:04;;;;;;;0.80;0.80;;;19.30;99.90;;;;;;4985314;28;20103;-89
2023/09/24 10:37:41;;;;;;;0.75;0.75;;;19.50;99.90;;;;;;4971550;28;20372;-90
2023/09/24 10:40:12;;;;;;;0.80;0.80;;;19.60;99.90;;;;;;4969569;28;20042;-83
2023/09/24 10:43:01;;;;;;;0.73;0.73;;;19.60;99.90;;;;;;4988514;28;20118;-94
2023/09/24 10:45:30;;;;;;;0.75;0.75;;;19.80;99.90;;;;;;4970594;28;20038;-88
2023/09/24 10:48:02;;;;;;;0.77;0.77;;;19.90;99.90;;;;;;4973630;28;20053;-87
2023/09/24 10:50:39;;;;;;;0.80;0.80;;;19.90;99.90;;;;;;4969763;28;20038;-90
2023/09/24 10:53:09;;;;;;;0.77;0.77;;;20.00;99.90;;;;;;4975496;28;20533;-94
2023/09/24 10:55:37;;;;;;;0.70;0.70;;;20.30;99.90;;;;;;4968627;28;20119;-85
2023/09/24 10:58:09;;;;;;;0.77;0.77;;;20.30;99.90;;;;;;4986064;28;20041;-87
2023/09/24 11:00:35;;;;;;;0.70;0.70;;;20.30;99.90;;;;;;4986781;28;20788;-91
2023/09/24 11:03:02;;;;;;;0.70;0.70;;;20.40;99.90;;;;;;4986803;28;20050;-86
2023/09/24 11:05:29;;;;;;;0.73;0.73;;;20.40;99.90;;;;;;4987083;28;20041;-84
2023/09/24 11:07:56;;;;;;;0.63;0.63;;;20.40;99.90;;;;;;4971860;28;20050;-92
2023/09/24 11:10:26;;;;;;;0.60;0.60;;;20.70;99.90;;;;;;4971401;28;20054;-86
2023/09/24 11:12:54;;;;;;;0.60;0.60;;;20.70;99.90;;;;;;5003716;28;20430;-88
2023/09/24 11:15:23;;;;;;;0.60;0.60;;;20.80;99.90;;;;;;4987155;28;20042;-90
2023/09/24 11:17:51;;;;;;;0.60;0.60;;;20.80;99.90;;;;;;4971576;28;20101;-86
2023/09/24 11:20:20;;;;;;;0.60;0.60;;;20.90;99.90;;;;;;4985798;28;20046;-86
2023/09/24 11:22:59;;;;;;;0.60;0.60;;;21.00;99.90;;;;;;4986031;28;20049;-79
2023/09/24 11:25:25;;;;;;;0.60;0.60;;;20.90;99.90;;;;;;4984112;28;20065;-84
2023/09/24 11:28:00;;;;;;;0.50;0.50;;;21.00;99.90;;;;;;4986332;28;20391;-86
2023/09/24 11:30:42;;;;;;;0.57;0.57;;;21.20;99.90;;;;;;4984581;28;20058;-86
2023/09/24 11:33:23;;;;;;;0.60;0.60;;;21.20;99.90;;;;;;4984070;28;20054;-91
2023/09/24 11:35:55;;;;;;;0.63;0.63;;;21.40;99.90;;;;;;4990916;28;20555;-87
2023/09/24 11:38:32;;;;;;;0.88;0.88;;;21.50;99.90;;;;;;4987463;28;20121;-84
2023/09/24 11:41:06;;;;;;;0.60;0.60;;;21.50;99.90;;;;;;4969584;28;20133;-89
2023/09/24 11:43:32;;;;;;;;;;;21.40;99.90;;;;;;4990952;28;20037;-86
2023/09/24 11:45:59;;;;;;;0.63;0.63;;;21.40;99.90;;;;;;4987438;28;19979;-86
2023/09/24 11:48:29;;;;;;;0.60;0.60;;;21.40;99.90;;;;;;4974174;28;20472;-87
2023/09/24 11:50:57;;;;;;;0.57;0.57;;;21.30;99.90;;;;;;4988474;28;20044;-86
2023/09/24 11:53:28;;;;;;;0.50;0.50;;;21.50;99.90;;;;;;4987956;28;20057;-82
2023/09/24 11:55:59;;;;;;;0.50;0.50;;;21.40;99.90;;;;;;4989642;28;20058;-86
2023/09/24 11:58:26;;;;;;;0.55;0.55;;;21.40;99.90;;;;;;4974252;28;20085;-83
2023/09/24 12:00:54;;;;;;;0.50;0.50;;;21.70;99.90;;;;;;4990239;28;20046;-88
2023/09/24 12:03:23;;;;;;;0.55;0.55;;;21.70;99.90;;;;;;4991121;28;20133;-84
2023/09/24 12:05:52;;;;;;;0.50;0.50;;;21.40;99.90;;;;;;4971965;28;20046;-87
2023/09/24 12:08:20;;;;;;;0.60;0.60;;;21.30;99.90;;;;;;4973430;28;20475;-91
2023/09/24 12:10:46;;;;;;;0.60;0.60;;;21.50;99.90;;;;;;4990048;28;20046;-87
2023/09/24 12:13:13;;;;;;;0.60;0.60;;;21.60;99.90;;;;;;4987773;28;20049;-90
2023/09/24 12:15:39;;;;;;;0.60;0.60;;;21.50;99.90;;;;;;4973014;28;20185;-90
2023/09/24 12:18:06;;;;;;;0.60;0.60;;;21.40;99.90;;;;;;4986808;28;20132;-87
2023/09/24 12:20:34;;;;;;;0.60;0.60;;;21.70;99.90;;;;;;4988891;28;20168;-88
2023/09/24 12:23:03;;;;;;;0.50;0.50;;;21.80;99.90;;;;;;4988387;28;20423;-87
2023/09/24 12:25:29;;;;;;;0.60;0.60;;;21.60;99.90;;;;;;4985349;28;20041;-87
2023/09/24 12:27:55;;;;;;;0.50;0.50;;;21.90;99.90;;;;;;4989460;28;20694;-86
2023/09/24 12:30:22;;;;;;;0.60;0.60;;;21.70;99.90;;;;;;4988900;28;20887;-84
2023/09/24 12:32:47;;;;;;;0.60;0.60;;;21.80;99.90;;;;;;5003966;28;20630;-90
2023/09/24 12:35:13;;;;;;;0.57;0.57;;;22.00;99.90;;;;;;4991486;28;20048;-89
2023/09/24 12:37:40;;;;;;;0.50;0.50;;;22.10;99.90;;;;;;4970006;28;20045;-85
2023/09/24 12:40:08;;;;;;;0.50;0.50;;;22.20;99.90;;;;;;4987411;28;20093;-88
2023/09/24 12:42:42;;;;;;;0.50;0.50;;;22.20;99.90;;;;;;4971471;28;20050;-88
2023/09/24 12:45:09;;;;;;;0.50;0.50;;;22.00;99.90;;;;;;4984927;28;20073;-90
2023/09/24 12:47:36;;;;;;;0.60;0.60;;;22.00;99.90;;;;;;4990147;28;20518;-86
2023/09/24 12:50:07;;;;;;;0.50;0.50;;;22.10;99.90;;;;;;4973054;28;20392;-83
2023/09/24 12:52:44;;;;;;;0.50;0.50;;;22.10;99.90;;;;;;4989639;28;20049;-87
2023/09/24 12:55:16;;;;;;;0.50;0.50;;;22.10;99.90;;;;;;4987225;28;20050;-88